createdAt,value
2023-11-10T00:01:44.372Z,0.90
2023-11-10T00:04:16.767Z,1.00
2023-11-10T00:06:48.604Z,1.00
2023-11-10T00:09:21.090Z,1.50
2023-11-10T00:11:53.495Z,1.00
2023-11-10T00:14:31.138Z,1.30
2023-11-10T00:17:11.350Z,1.00
2023-11-10T00:19:45.136Z,0.70
2023-11-10T00:22:17.206Z,1.30
2023-11-10T00:24:49.068Z,1.10
2023-11-10T00:27:20.874Z,0.60
2023-11-10T00:29:53.219Z,1.30
2023-11-10T00:32:25.792Z,1.60
2023-11-10T00:34:57.462Z,1.30
2023-11-10T00:37:29.071Z,0.80
2023-11-10T00:40:02.471Z,1.30
2023-11-10T00:42:34.563Z,1.20
2023-11-10T00:45:07.632Z,0.80
2023-11-10T00:47:39.317Z,1.20
2023-11-10T00:50:13.153Z,1.00
2023-11-10T00:52:45.073Z,1.00
2023-11-10T00:55:17.782Z,0.90
2023-11-10T00:57:49.478Z,1.50
2023-11-10T01:00:22.188Z,1.10
2023-11-10T01:02:56.153Z,0.80
2023-11-10T01:05:28.208Z,1.40
2023-11-10T01:07:59.844Z,1.10
2023-11-10T01:10:33.571Z,1.40
2023-11-10T01:13:06.692Z,1.50
2023-11-10T01:15:38.425Z,1.00
2023-11-10T01:18:10.415Z,0.90
2023-11-10T01:20:42.151Z,1.10
2023-11-10T01:23:13.822Z,1.00
2023-11-10T01:25:45.402Z,1.00
2023-11-10T01:28:16.993Z,0.90
2023-11-10T01:30:49.546Z,1.10
2023-11-10T01:33:21.687Z,1.00
2023-11-10T01:35:53.466Z,0.90
2023-11-10T01:38:25.025Z,0.90
2023-11-10T01:40:57.249Z,1.50
2023-11-10T01:43:30.545Z,1.10
2023-11-10T01:46:02.147Z,1.70
2023-11-10T01:48:34.496Z,0.90
2023-11-10T01:51:06.762Z,1.30
2023-11-10T01:53:38.413Z,0.80
2023-11-10T01:56:10.678Z,1.20
2023-11-10T01:58:42.137Z,1.90
2023-11-10T02:01:13.880Z,1.20
2023-11-10T02:03:46.437Z,2.10
2023-11-10T02:06:18.137Z,1.20
2023-11-10T02:08:49.703Z,1.40
2023-11-10T02:11:24.418Z,1.10
2023-11-10T02:14:05.827Z,1.30
2023-11-10T02:16:40.374Z,1.30
2023-11-10T02:19:17.903Z,1.20
2023-11-10T02:21:49.573Z,1.10
2023-11-10T02:24:23.185Z,1.70
2023-11-10T02:26:54.857Z,2.30
2023-11-10T02:29:26.531Z,1.60
2023-11-10T02:31:58.014Z,1.30
2023-11-10T02:34:29.711Z,1.40
2023-11-10T02:37:01.523Z,1.30
2023-11-10T02:39:33.200Z,1.10
2023-11-10T02:42:05.726Z,1.70
2023-11-10T02:44:37.936Z,1.00
2023-11-10T02:47:10.450Z,1.40
2023-11-10T02:49:42.812Z,1.30
2023-11-10T02:52:14.407Z,1.50
2023-11-10T02:54:46.326Z,1.40
2023-11-10T02:57:18.119Z,1.40
2023-11-10T02:59:49.629Z,1.20
2023-11-10T03:02:21.666Z,1.10
2023-11-10T03:04:53.954Z,1.20
2023-11-10T03:07:25.871Z,1.40
2023-11-10T03:09:59.463Z,1.40
2023-11-10T03:12:32.354Z,1.00
2023-11-10T03:15:04.801Z,1.30
2023-11-10T03:17:36.569Z,1.40
2023-11-10T03:20:10.694Z,1.50
2023-11-10T03:22:42.937Z,1.50
2023-11-10T03:25:15.252Z,1.50
2023-11-10T03:27:47.168Z,1.10
2023-11-10T03:30:19.425Z,1.30
2023-11-10T03:32:51.255Z,1.80
2023-11-10T03:35:23.615Z,1.50
2023-11-10T03:37:55.369Z,1.20
2023-11-10T03:40:27.504Z,1.40
2023-11-10T03:42:58.978Z,1.20
2023-11-10T03:45:30.726Z,1.70
2023-11-10T03:48:02.449Z,1.30
2023-11-10T03:50:34.078Z,1.20
2023-11-10T03:53:05.614Z,1.40
2023-11-10T03:55:37.213Z,1.30
2023-11-10T03:58:10.288Z,2.00
2023-11-10T04:00:48.628Z,1.50
2023-11-10T04:03:21.200Z,1.20
2023-11-10T04:05:52.930Z,1.70
2023-11-10T04:08:24.562Z,1.40
2023-11-10T04:10:56.310Z,1.70
2023-11-10T04:13:27.795Z,1.30
2023-11-10T04:15:59.734Z,2.20
2023-11-10T04:18:31.912Z,1.90
2023-11-10T04:21:03.586Z,1.70
2023-11-10T04:23:35.852Z,1.50
2023-11-10T04:26:08.171Z,0.90
2023-11-10T04:28:40.766Z,1.60
2023-11-10T04:31:12.683Z,1.30
2023-11-10T04:33:45.299Z,1.50
2023-11-10T04:36:17.455Z,1.10
2023-11-10T04:38:49.681Z,1.30
2023-11-10T04:41:25.583Z,1.30
2023-11-10T04:43:57.134Z,1.50
2023-11-10T04:46:28.603Z,1.20
2023-11-10T04:49:00.192Z,1.00
2023-11-10T04:51:32.695Z,1.50
2023-11-10T04:54:04.540Z,1.60
2023-11-10T04:56:45.380Z,1.60
2023-11-10T04:59:17.208Z,1.60
2023-11-10T05:01:50.344Z,1.30
2023-11-10T05:04:22.089Z,1.50
2023-11-10T05:06:54.216Z,1.80
2023-11-10T05:09:25.922Z,1.40
2023-11-10T05:11:57.911Z,1.30
2023-11-10T05:14:29.635Z,1.70
2023-11-10T05:17:01.647Z,1.50
2023-11-10T05:19:33.828Z,1.90
2023-11-10T05:22:06.767Z,1.20
2023-11-10T05:24:39.556Z,0.90
2023-11-10T05:27:11.382Z,1.40
2023-11-10T05:29:42.867Z,0.80
2023-11-10T05:32:15.788Z,1.40
2023-11-10T05:34:47.363Z,1.40
2023-11-10T05:37:19.735Z,1.10
2023-11-10T05:39:52.150Z,2.00
2023-11-10T05:42:24.803Z,1.50
2023-11-10T05:44:56.326Z,1.30
2023-11-10T05:47:28.603Z,1.30
2023-11-10T05:50:00.494Z,1.20
2023-11-10T05:52:32.786Z,1.60
2023-11-10T05:55:04.753Z,1.50
2023-11-10T05:57:37.816Z,1.80
2023-11-10T06:00:11.570Z,1.50
2023-11-10T06:02:44.469Z,1.90
2023-11-10T06:05:16.949Z,1.10
2023-11-10T06:07:48.902Z,2.00
2023-11-10T06:10:22.360Z,1.60
2023-11-10T06:12:54.206Z,1.90
2023-11-10T06:15:25.854Z,1.30
2023-11-10T06:17:57.855Z,1.50
2023-11-10T06:20:29.915Z,1.60
2023-11-10T06:23:01.504Z,1.60
2023-11-10T06:25:33.117Z,1.80
2023-11-10T06:28:05.007Z,1.90
2023-11-10T06:30:36.634Z,1.20
2023-11-10T06:33:08.720Z,1.70
2023-11-10T06:35:40.329Z,1.70
2023-11-10T06:38:12.233Z,1.90
2023-11-10T06:40:43.872Z,2.30
2023-11-10T06:43:16.138Z,1.60
2023-11-10T06:45:47.763Z,2.80
2023-11-10T06:48:20.183Z,1.90
2023-11-10T06:50:51.739Z,1.80
2023-11-10T06:53:23.618Z,1.90
2023-11-10T06:55:55.101Z,1.70
2023-11-10T06:58:26.954Z,1.90
2023-11-10T07:00:59.687Z,1.70
2023-11-10T07:03:31.895Z,1.60
2023-11-10T07:06:06.095Z,1.80
2023-11-10T07:08:39.619Z,1.70
2023-11-10T07:11:11.751Z,1.60
2023-11-10T07:13:43.372Z,1.60
2023-11-10T07:16:15.740Z,1.90
2023-11-10T07:18:47.791Z,2.10
2023-11-10T07:21:19.987Z,1.30
2023-11-10T07:23:52.931Z,1.70
2023-11-10T07:26:24.873Z,2.20
2023-11-10T07:28:56.474Z,1.40
2023-11-10T07:31:28.026Z,1.60
2023-11-10T07:34:00.348Z,1.60
2023-11-10T07:36:32.079Z,1.40
2023-11-10T07:39:03.791Z,1.30
2023-11-10T07:41:36.207Z,1.60
2023-11-10T07:44:11.013Z,1.90
2023-11-10T07:46:43.095Z,2.10
2023-11-10T07:49:15.016Z,1.80
2023-11-10T07:51:46.589Z,1.20
2023-11-10T07:54:19.010Z,2.20
2023-11-10T07:56:52.072Z,1.60
2023-11-10T07:59:23.686Z,1.20
2023-11-10T08:01:55.304Z,1.40
2023-11-10T08:04:27.354Z,1.10
2023-11-10T08:06:59.111Z,1.20
2023-11-10T08:09:30.834Z,1.40
2023-11-10T08:12:02.324Z,1.20
2023-11-10T08:14:34.223Z,1.40
2023-11-10T08:17:07.847Z,1.10
2023-11-10T08:19:41.099Z,1.20
2023-11-10T08:22:12.971Z,1.10
2023-11-10T08:24:44.793Z,1.00
2023-11-10T08:27:16.486Z,1.30
2023-11-10T08:29:48.554Z,1.50
2023-11-10T08:32:20.341Z,1.80
2023-11-10T08:34:52.843Z,1.10
2023-11-10T08:37:24.725Z,1.30
2023-11-10T08:39:56.617Z,1.30
2023-11-10T08:42:28.376Z,1.40
2023-11-10T08:45:00.368Z,1.50
2023-11-10T08:47:32.949Z,1.40
2023-11-10T08:50:06.469Z,1.70
2023-11-10T08:52:41.903Z,1.00
2023-11-10T08:55:14.882Z,1.30
2023-11-10T08:57:47.698Z,1.00
2023-11-10T09:00:20.342Z,1.30
2023-11-10T09:02:53.990Z,1.30
2023-11-10T09:05:27.125Z,1.70
2023-11-10T09:07:58.789Z,0.90
2023-11-10T09:10:30.579Z,1.10
2023-11-10T09:13:02.678Z,1.10
2023-11-10T09:15:35.247Z,1.30
2023-11-10T09:18:07.901Z,1.60
2023-11-10T09:20:40.363Z,1.50
2023-11-10T09:23:12.649Z,1.10
2023-11-10T09:25:45.449Z,0.90
2023-11-10T09:28:17.592Z,1.20
2023-11-10T09:30:49.646Z,0.90
2023-11-10T09:33:23.218Z,1.30
2023-11-10T09:35:55.324Z,1.00
2023-11-10T09:38:27.351Z,1.20
2023-11-10T09:40:59.511Z,1.10
2023-11-10T09:43:33.522Z,1.30
2023-11-10T09:46:07.095Z,1.00
2023-11-10T09:48:39.805Z,0.80
2023-11-10T09:51:13.277Z,0.90
2023-11-10T09:53:45.787Z,1.50
2023-11-10T09:56:18.045Z,1.10
2023-11-10T09:58:51.709Z,1.30
2023-11-10T10:01:23.954Z,1.00
2023-11-10T10:03:55.871Z,1.50
2023-11-10T10:06:28.584Z,1.10
2023-11-10T10:09:05.631Z,0.90
2023-11-10T10:11:38.305Z,1.30
2023-11-10T10:14:10.385Z,1.80
2023-11-10T10:16:52.171Z,0.80
2023-11-10T10:19:29.758Z,1.80
2023-11-10T10:22:01.895Z,1.20
2023-11-10T10:24:33.487Z,1.10
2023-11-10T10:27:05.276Z,1.50
2023-11-10T10:29:38.034Z,1.40
2023-11-10T10:32:10.596Z,1.10
2023-11-10T10:34:44.348Z,1.30
2023-11-10T10:37:23.229Z,1.30
2023-11-10T10:40:01.027Z,0.70
2023-11-10T10:42:36.297Z,1.30
2023-11-10T10:45:11.440Z,1.10
2023-11-10T10:47:45.440Z,1.10
2023-11-10T10:50:17.919Z,1.70
2023-11-10T10:52:50.557Z,1.40
2023-11-10T10:55:24.330Z,1.10
2023-11-10T10:58:01.948Z,1.30
2023-11-10T11:00:34.015Z,1.00
2023-11-10T11:03:24.975Z,1.20
2023-11-10T11:06:14.047Z,1.20
2023-11-10T11:09:07.603Z,1.40
2023-11-10T11:14:46.232Z,0.80
2023-11-10T11:18:07.718Z,1.30
2023-11-10T11:20:43.186Z,1.40
2023-11-10T11:23:15.489Z,1.10
2023-11-10T11:25:50.640Z,0.80
2023-11-10T11:28:33.803Z,0.90
2023-11-10T11:31:14.426Z,0.70
2023-11-10T11:33:48.761Z,1.30
2023-11-10T11:36:23.283Z,1.00
2023-11-10T11:38:55.797Z,1.00
2023-11-10T11:41:30.212Z,1.00
2023-11-10T11:44:03.182Z,1.80
2023-11-10T11:46:37.164Z,1.40
2023-11-10T11:49:10.003Z,1.10
2023-11-10T11:54:16.557Z,1.10
2023-11-10T11:56:49.045Z,1.30
2023-11-10T11:59:20.736Z,1.30
2023-11-10T12:01:53.522Z,0.70
2023-11-10T12:04:28.224Z,1.10
2023-11-10T12:07:00.519Z,1.80
2023-11-10T12:09:32.629Z,1.10
2023-11-10T12:12:05.258Z,1.10
2023-11-10T12:14:38.288Z,1.30
2023-11-10T12:17:10.251Z,1.00
2023-11-10T12:19:42.422Z,1.20
2023-11-10T12:22:14.932Z,0.90
2023-11-10T12:24:49.690Z,1.20
2023-11-10T12:27:22.327Z,1.00
2023-11-10T12:29:54.797Z,1.10
2023-11-10T12:32:31.838Z,1.30
2023-11-10T12:35:06.703Z,0.90
2023-11-10T12:37:39.892Z,0.80
2023-11-10T12:40:19.223Z,1.30
2023-11-10T12:42:51.740Z,1.10
2023-11-10T12:45:25.315Z,1.20
2023-11-10T12:48:03.851Z,1.10
2023-11-10T12:50:39.856Z,1.40
2023-11-10T12:53:14.374Z,1.80
2023-11-10T12:55:48.140Z,0.90
2023-11-10T12:58:20.359Z,1.00
2023-11-10T13:00:52.290Z,1.10
2023-11-10T13:03:25.231Z,1.10
2023-11-10T13:05:57.783Z,1.30
2023-11-10T13:08:30.640Z,1.20
2023-11-10T13:11:02.453Z,1.30
2023-11-10T13:13:35.263Z,1.10
2023-11-10T13:16:10.755Z,1.20
2023-11-10T13:18:42.669Z,0.90
2023-11-10T13:21:14.497Z,1.30
2023-11-10T13:23:46.445Z,1.00
2023-11-10T13:26:23.234Z,1.20
2023-11-10T13:28:57.134Z,1.40
2023-11-10T13:31:31.969Z,1.10
2023-11-10T13:34:07.425Z,1.30
2023-11-10T13:36:39.822Z,1.30
2023-11-10T13:39:14.021Z,1.30
2023-11-10T13:41:49.357Z,1.40
2023-11-10T13:44:22.241Z,1.60
2023-11-10T13:46:54.311Z,1.20
2023-11-10T13:49:27.474Z,1.20
2023-11-10T13:51:59.468Z,1.10
2023-11-10T13:54:32.001Z,1.30
2023-11-10T13:57:04.483Z,0.90
2023-11-10T13:59:40.663Z,1.30
2023-11-10T14:02:12.657Z,1.20
2023-11-10T14:04:45.102Z,1.30
2023-11-10T14:07:17.111Z,1.10
2023-11-10T14:09:49.103Z,1.50
2023-11-10T14:12:20.831Z,1.30
2023-11-10T14:14:54.083Z,1.20
2023-11-10T14:17:26.524Z,0.80
2023-11-10T14:19:58.330Z,1.10
2023-11-10T14:22:30.579Z,1.00
2023-11-10T14:25:04.233Z,1.20
2023-11-10T14:27:36.296Z,1.20
2023-11-10T14:30:11.175Z,1.00
2023-11-10T14:32:44.549Z,1.10
2023-11-10T14:35:17.323Z,1.50
2023-11-10T14:37:48.940Z,1.70
2023-11-10T14:40:29.386Z,1.50
2023-11-10T14:43:03.667Z,1.20
2023-11-10T14:45:36.848Z,1.50
2023-11-10T14:48:14.256Z,1.80
2023-11-10T14:50:48.554Z,1.30
2023-11-10T14:53:26.304Z,1.30
2023-11-10T14:55:59.224Z,1.80
2023-11-10T14:58:31.202Z,1.40
2023-11-10T15:01:04.487Z,1.40
2023-11-10T15:03:36.252Z,1.40
2023-11-10T15:06:09.436Z,1.50
2023-11-10T15:08:41.160Z,1.60
2023-11-10T15:11:14.569Z,1.70
2023-11-10T15:13:47.308Z,1.30
2023-11-10T15:16:19.604Z,1.50
2023-11-10T15:18:51.863Z,1.30
2023-11-10T15:21:23.590Z,1.10
2023-11-10T15:23:55.463Z,1.40
2023-11-10T15:26:27.451Z,2.10
2023-11-10T15:28:59.126Z,1.50
2023-11-10T15:31:30.834Z,2.00
2023-11-10T15:34:03.659Z,1.50
2023-11-10T15:36:42.662Z,1.60
2023-11-10T15:39:16.082Z,2.00
2023-11-10T15:41:49.209Z,1.70
2023-11-10T15:44:20.917Z,1.90
2023-11-10T15:46:52.928Z,1.30
2023-11-10T15:49:24.904Z,2.30
2023-11-10T15:51:57.912Z,1.70
2023-11-10T15:54:29.943Z,1.60
2023-11-10T15:57:02.232Z,1.90
2023-11-10T15:59:34.124Z,2.00
2023-11-10T16:02:07.854Z,1.80
2023-11-10T16:04:39.892Z,1.70
2023-11-10T16:07:13.881Z,1.60
2023-11-10T16:09:46.585Z,1.40
2023-11-10T16:12:18.479Z,1.40
2023-11-10T16:14:51.726Z,1.90
2023-11-10T16:17:23.652Z,1.50
2023-11-10T16:19:55.515Z,1.90
2023-11-10T16:22:27.544Z,1.70
2023-11-10T16:24:59.865Z,2.10
2023-11-10T16:27:32.314Z,2.20
2023-11-10T16:30:04.728Z,2.20
2023-11-10T16:32:37.332Z,2.00
2023-11-10T16:35:11.129Z,1.60
2023-11-10T16:37:43.929Z,1.40
2023-11-10T16:40:16.790Z,1.50
2023-11-10T16:42:48.922Z,1.60
2023-11-10T16:45:20.993Z,2.10
2023-11-10T16:47:54.169Z,2.50
2023-11-10T16:50:26.018Z,2.30
2023-11-10T16:52:57.890Z,2.20
2023-11-10T16:55:29.918Z,1.80
2023-11-10T16:58:02.487Z,1.60
2023-11-10T17:00:40.320Z,1.60
2023-11-10T17:03:14.609Z,2.30
2023-11-10T17:05:51.202Z,2.60
2023-11-10T17:08:24.945Z,1.80
2023-11-10T17:10:56.734Z,1.60
2023-11-10T17:13:31.412Z,2.20
2023-11-10T17:16:03.786Z,1.60
2023-11-10T17:18:36.845Z,2.00
2023-11-10T17:21:08.955Z,1.80
2023-11-10T17:23:40.710Z,2.10
2023-11-10T17:26:14.938Z,1.30
2023-11-10T17:28:47.118Z,1.90
2023-11-10T17:31:18.974Z,1.90
2023-11-10T17:33:50.866Z,1.30
2023-11-10T17:36:22.646Z,1.40
2023-11-10T17:38:55.440Z,2.40
2023-11-10T17:41:27.426Z,2.10
2023-11-10T17:44:00.382Z,2.00
2023-11-10T17:46:32.333Z,1.90
2023-11-10T17:49:04.317Z,1.90
2023-11-10T17:51:36.869Z,1.70
2023-11-10T17:54:09.831Z,1.70
2023-11-10T17:56:41.435Z,1.70
2023-11-10T17:59:15.285Z,2.50
2023-11-10T18:01:47.217Z,1.80
2023-11-10T18:04:20.598Z,1.60
2023-11-10T18:06:52.856Z,1.30
2023-11-10T18:09:24.614Z,2.40
2023-11-10T18:11:56.428Z,1.90
2023-11-10T18:14:28.439Z,1.20
2023-11-10T18:17:00.266Z,1.80
2023-11-10T18:19:32.679Z,1.70
2023-11-10T18:22:04.901Z,1.50
2023-11-10T18:24:37.297Z,1.80
2023-11-10T18:27:09.114Z,1.80
2023-11-10T18:29:40.931Z,1.70
2023-11-10T18:32:13.971Z,1.70
2023-11-10T18:34:46.530Z,1.60
2023-11-10T18:37:18.220Z,1.40
2023-11-10T18:39:51.679Z,1.80
2023-11-10T18:42:25.530Z,1.60
2023-11-10T18:44:57.328Z,1.80
2023-11-10T18:47:29.183Z,1.70
2023-11-10T18:50:01.094Z,2.00
2023-11-10T18:52:33.619Z,1.40
2023-11-10T18:55:07.383Z,1.70
2023-11-10T18:57:39.201Z,2.00
2023-11-10T19:00:14.419Z,1.80
2023-11-10T19:05:17.098Z,1.40
2023-11-10T19:07:48.722Z,1.90
2023-11-10T19:10:22.060Z,1.60
2023-11-10T19:12:54.002Z,1.90
2023-11-10T19:15:25.696Z,2.10
2023-11-10T19:17:57.336Z,1.80
2023-11-10T19:20:29.342Z,2.00
2023-11-10T19:23:02.123Z,2.40
2023-11-10T19:25:33.745Z,1.40
2023-11-10T19:28:07.028Z,1.50
2023-11-10T19:30:38.795Z,1.60
2023-11-10T19:33:12.223Z,1.80
2023-11-10T19:35:44.068Z,2.00
2023-11-10T19:38:15.665Z,1.60
2023-11-10T19:40:47.960Z,1.90
2023-11-10T19:43:19.708Z,1.30
2023-11-10T19:45:51.552Z,2.10
2023-11-10T19:48:23.393Z,2.00
2023-11-10T19:50:55.305Z,2.00
2023-11-10T19:53:27.279Z,1.50
2023-11-10T19:55:59.030Z,2.10
2023-11-10T20:01:05.963Z,2.00
2023-11-10T20:03:37.656Z,1.50
2023-11-10T20:06:11.788Z,2.00
2023-11-10T20:08:44.052Z,1.40
2023-11-10T20:11:20.408Z,2.80
2023-11-10T20:13:52.767Z,2.00
2023-11-10T20:16:26.674Z,2.80
2023-11-10T20:18:58.649Z,2.70
2023-11-10T20:21:31.099Z,2.20
2023-11-10T20:24:03.213Z,1.90
2023-11-10T20:26:35.251Z,2.40
2023-11-10T20:29:07.420Z,3.00
2023-11-10T20:31:40.549Z,2.50
2023-11-10T20:34:12.878Z,2.40
2023-11-10T20:36:45.468Z,1.70
2023-11-10T20:39:17.276Z,2.20
2023-11-10T20:41:49.321Z,2.50
2023-11-10T20:44:21.303Z,2.00
2023-11-10T20:46:53.709Z,2.20
2023-11-10T20:49:25.432Z,2.10
2023-11-10T20:51:58.448Z,2.20
2023-11-10T20:54:31.202Z,2.60
2023-11-10T20:57:03.941Z,2.70
2023-11-10T20:59:35.841Z,2.60
2023-11-10T21:02:07.749Z,2.00
2023-11-10T21:04:40.247Z,2.10
2023-11-10T21:07:12.916Z,2.50
2023-11-10T21:09:45.199Z,2.60
2023-11-10T21:12:17.439Z,2.80
2023-11-10T21:14:49.348Z,1.70
2023-11-10T21:17:21.828Z,2.20
2023-11-10T21:19:53.860Z,2.70
2023-11-10T21:22:27.736Z,1.90
2023-11-10T21:25:00.058Z,2.00
2023-11-10T21:27:32.120Z,2.10
2023-11-10T21:30:05.967Z,2.20
2023-11-10T21:32:40.058Z,1.90
2023-11-10T21:35:13.675Z,2.20
2023-11-10T21:37:45.501Z,2.10
2023-11-10T21:40:22.489Z,2.10
2023-11-10T21:42:55.739Z,1.80
2023-11-10T21:45:27.513Z,2.70
2023-11-10T21:48:00.326Z,1.90
2023-11-10T21:50:32.171Z,2.20
2023-11-10T21:53:04.218Z,2.00
2023-11-10T21:55:36.211Z,2.10
2023-11-10T21:58:08.764Z,2.10
2023-11-10T22:00:40.459Z,2.00
2023-11-10T22:03:12.486Z,1.90
2023-11-10T22:05:44.340Z,1.90
2023-11-10T22:08:15.970Z,2.70
2023-11-10T22:10:47.957Z,1.70
2023-11-10T22:13:21.193Z,1.90
2023-11-10T22:15:52.779Z,1.50
2023-11-10T22:18:27.319Z,1.60
2023-11-10T22:20:59.407Z,1.70
2023-11-10T22:23:31.567Z,2.10
2023-11-10T22:26:03.422Z,2.00
2023-11-10T22:28:35.233Z,1.60
2023-11-10T22:31:07.231Z,1.60
2023-11-10T22:33:39.494Z,1.40
2023-11-10T22:36:11.940Z,1.70
2023-11-10T22:38:44.853Z,1.70
2023-11-10T22:41:16.686Z,1.30
2023-11-10T22:43:48.534Z,1.60
2023-11-10T22:46:21.251Z,2.10
2023-11-10T22:48:53.006Z,1.10
2023-11-10T22:51:25.658Z,2.30
2023-11-10T22:53:58.239Z,2.20
2023-11-10T22:56:30.016Z,2.40
2023-11-10T22:59:01.688Z,1.70
2023-11-10T23:01:33.373Z,1.80
2023-11-10T23:04:07.182Z,2.10
2023-11-10T23:06:39.025Z,2.10
2023-11-10T23:09:13.052Z,1.90
2023-11-10T23:11:44.848Z,2.70
2023-11-10T23:14:16.492Z,2.40
2023-11-10T23:16:48.514Z,2.00
2023-11-10T23:19:20.929Z,2.00
2023-11-10T23:21:53.915Z,2.00
2023-11-10T23:24:26.039Z,2.00
2023-11-10T23:26:58.006Z,2.40
2023-11-10T23:29:29.567Z,1.70
2023-11-10T23:32:01.490Z,2.20
2023-11-10T23:34:33.987Z,2.60
2023-11-10T23:37:07.060Z,2.40
2023-11-10T23:39:38.957Z,2.60
2023-11-10T23:42:10.722Z,2.30
2023-11-10T23:44:42.943Z,2.80
2023-11-10T23:47:15.074Z,2.10
2023-11-10T23:49:46.940Z,2.60
2023-11-10T23:52:18.650Z,2.10
2023-11-10T23:54:50.694Z,2.20
2023-11-10T23:57:22.444Z,2.40
2023-11-10T23:59:54.517Z,2.30
